sensor_id;sensor_type;location;lat;lon;timestamp;P1;durP1;ratioP1;P2;durP2;ratioP2
75887;SDS011;64562;55.662;37.300;2022-11-06T00:00:08;6.22;;;3.97;;
75887;SDS011;64562;55.662;37.300;2022-11-06T00:02:35;6.90;;;4.15;;
75887;SDS011;64562;55.662;37.300;2022-11-06T00:05:01;6.57;;;3.83;;
75887;SDS011;64562;55.662;37.300;2022-11-06T00:07:45;5.28;;;3.25;;
75887;SDS011;64562;55.662;37.300;2022-11-06T00:10:11;4.72;;;3.63;;
75887;SDS011;64562;55.662;37.300;2022-11-06T00:12:38;6.45;;;4.32;;
75887;SDS011;64562;55.662;37.300;2022-11-06T00:15:05;7.47;;;3.90;;
75887;SDS011;64562;55.662;37.300;2022-11-06T00:17:32;6.18;;;4.35;;
75887;SDS011;64562;55.662;37.300;2022-11-06T00:19:59;5.20;;;3.00;;
75887;SDS011;64562;55.662;37.300;2022-11-06T00:22:25;6.43;;;3.60;;
75887;SDS011;64562;55.662;37.300;2022-11-06T00:24:53;5.60;;;3.30;;
75887;SDS011;64562;55.662;37.300;2022-11-06T00:27:20;6.10;;;2.97;;
75887;SDS011;64562;55.662;37.300;2022-11-06T00:29:46;5.93;;;3.80;;
75887;SDS011;64562;55.662;37.300;2022-11-06T00:32:13;4.40;;;3.45;;
75887;SDS011;64562;55.662;37.300;2022-11-06T00:34:40;5.90;;;3.50;;
75887;SDS011;64562;55.662;37.300;2022-11-06T00:37:06;4.65;;;3.00;;
75887;SDS011;64562;55.662;37.300;2022-11-06T00:39:33;6.07;;;3.28;;
75887;SDS011;64562;55.662;37.300;2022-11-06T00:42:01;3.88;;;2.85;;
75887;SDS011;64562;55.662;37.300;2022-11-06T00:44:28;5.50;;;3.50;;
75887;SDS011;64562;55.662;37.300;2022-11-06T00:46:54;3.90;;;3.00;;
75887;SDS011;64562;55.662;37.300;2022-11-06T00:49:21;4.68;;;3.30;;
75887;SDS011;64562;55.662;37.300;2022-11-06T00:51:47;6.90;;;3.40;;
75887;SDS011;64562;55.662;37.300;2022-11-06T00:54:14;4.32;;;3.10;;
75887;SDS011;64562;55.662;37.300;2022-11-06T00:56:41;5.38;;;3.05;;
75887;SDS011;64562;55.662;37.300;2022-11-06T00:59:10;5.25;;;3.25;;
75887;SDS011;64562;55.662;37.300;2022-11-06T01:01:38;4.38;;;3.13;;
75887;SDS011;64562;55.662;37.300;2022-11-06T01:04:06;5.72;;;3.17;;
75887;SDS011;64562;55.662;37.300;2022-11-06T01:06:34;5.53;;;3.25;;
75887;SDS011;64562;55.662;37.300;2022-11-06T01:09:00;5.60;;;2.80;;
75887;SDS011;64562;55.662;37.300;2022-11-06T01:11:28;4.90;;;3.35;;
75887;SDS011;64562;55.662;37.300;2022-11-06T01:13:56;4.75;;;3.17;;
75887;SDS011;64562;55.662;37.300;2022-11-06T01:16:25;4.93;;;3.80;;
75887;SDS011;64562;55.662;37.300;2022-11-06T01:18:52;4.72;;;3.60;;
75887;SDS011;64562;55.662;37.300;2022-11-06T01:21:20;4.28;;;2.90;;
75887;SDS011;64562;55.662;37.300;2022-11-06T01:23:50;4.78;;;2.78;;
75887;SDS011;64562;55.662;37.300;2022-11-06T01:26:17;4.55;;;3.05;;
75887;SDS011;64562;55.662;37.300;2022-11-06T01:28:44;4.63;;;3.55;;
75887;SDS011;64562;55.662;37.300;2022-11-06T01:31:12;5.15;;;3.25;;
75887;SDS011;64562;55.662;37.300;2022-11-06T01:33:40;4.65;;;3.20;;
75887;SDS011;64562;55.662;37.300;2022-11-06T01:36:07;5.00;;;3.22;;
75887;SDS011;64562;55.662;37.300;2022-11-06T01:38:34;5.40;;;3.28;;
75887;SDS011;64562;55.662;37.300;2022-11-06T01:41:00;5.03;;;3.15;;
75887;SDS011;64562;55.662;37.300;2022-11-06T01:43:44;5.38;;;3.58;;
75887;SDS011;64562;55.662;37.300;2022-11-06T01:46:11;5.15;;;3.10;;
75887;SDS011;64562;55.662;37.300;2022-11-06T01:48:38;5.70;;;3.17;;
75887;SDS011;64562;55.662;37.300;2022-11-06T01:51:07;4.35;;;3.20;;
75887;SDS011;64562;55.662;37.300;2022-11-06T01:53:33;4.63;;;3.22;;
75887;SDS011;64562;55.662;37.300;2022-11-06T01:56:02;4.13;;;3.28;;
75887;SDS011;64562;55.662;37.300;2022-11-06T01:58:30;3.92;;;3.17;;
75887;SDS011;64562;55.662;37.300;2022-11-06T02:00:58;4.68;;;3.40;;
75887;SDS011;64562;55.662;37.300;2022-11-06T02:03:25;4.15;;;3.17;;
75887;SDS011;64562;55.662;37.300;2022-11-06T02:05:52;4.00;;;3.10;;
75887;SDS011;64562;55.662;37.300;2022-11-06T02:08:20;5.45;;;3.72;;
75887;SDS011;64562;55.662;37.300;2022-11-06T02:10:47;4.13;;;3.38;;
75887;SDS011;64562;55.662;37.300;2022-11-06T02:13:15;4.50;;;2.72;;
75887;SDS011;64562;55.662;37.300;2022-11-06T02:15:45;5.28;;;3.30;;
75887;SDS011;64562;55.662;37.300;2022-11-06T02:18:25;4.65;;;3.38;;
75887;SDS011;64562;55.662;37.300;2022-11-06T02:21:06;3.88;;;2.70;;
75887;SDS011;64562;55.662;37.300;2022-11-06T02:23:42;4.45;;;2.92;;
75887;SDS011;64562;55.662;37.300;2022-11-06T02:26:18;4.00;;;3.15;;
75887;SDS011;64562;55.662;37.300;2022-11-06T02:28:50;3.67;;;2.53;;
75887;SDS011;64562;55.662;37.300;2022-11-06T02:31:19;4.18;;;2.90;;
75887;SDS011;64562;55.662;37.300;2022-11-06T02:33:50;4.35;;;2.78;;
75887;SDS011;64562;55.662;37.300;2022-11-06T02:36:17;3.47;;;2.80;;
75887;SDS011;64562;55.662;37.300;2022-11-06T02:38:46;4.95;;;2.47;;
75887;SDS011;64562;55.662;37.300;2022-11-06T02:41:15;4.03;;;2.95;;
75887;SDS011;64562;55.662;37.300;2022-11-06T02:43:44;6.95;;;3.30;;
75887;SDS011;64562;55.662;37.300;2022-11-06T02:46:13;3.30;;;2.65;;
75887;SDS011;64562;55.662;37.300;2022-11-06T02:48:41;3.75;;;2.47;;
75887;SDS011;64562;55.662;37.300;2022-11-06T02:51:09;3.80;;;2.60;;
75887;SDS011;64562;55.662;37.300;2022-11-06T02:53:36;4.18;;;2.80;;
75887;SDS011;64562;55.662;37.300;2022-11-06T02:56:04;4.35;;;3.13;;
75887;SDS011;64562;55.662;37.300;2022-11-06T02:58:34;6.47;;;2.72;;
75887;SDS011;64562;55.662;37.300;2022-11-06T03:01:02;4.78;;;3.33;;
75887;SDS011;64562;55.662;37.300;2022-11-06T03:03:31;2.65;;;2.10;;
75887;SDS011;64562;55.662;37.300;2022-11-06T03:08:27;4.38;;;2.72;;
75887;SDS011;64562;55.662;37.300;2022-11-06T03:10:57;5.07;;;2.83;;
75887;SDS011;64562;55.662;37.300;2022-11-06T03:13:27;3.92;;;2.63;;
75887;SDS011;64562;55.662;37.300;2022-11-06T03:18:26;5.00;;;2.88;;
75887;SDS011;64562;55.662;37.300;2022-11-06T03:20:57;4.03;;;3.05;;
75887;SDS011;64562;55.662;37.300;2022-11-06T03:23:26;3.40;;;2.60;;
75887;SDS011;64562;55.662;37.300;2022-11-06T03:25:54;4.47;;;2.88;;
75887;SDS011;64562;55.662;37.300;2022-11-06T03:28:23;4.07;;;2.80;;
75887;SDS011;64562;55.662;37.300;2022-11-06T03:30:51;4.07;;;2.65;;
75887;SDS011;64562;55.662;37.300;2022-11-06T03:33:20;4.57;;;2.85;;
75887;SDS011;64562;55.662;37.300;2022-11-06T03:35:49;4.07;;;2.97;;
75887;SDS011;64562;55.662;37.300;2022-11-06T03:38:18;4.63;;;2.80;;
75887;SDS011;64562;55.662;37.300;2022-11-06T03:40:48;2.95;;;2.45;;
75887;SDS011;64562;55.662;37.300;2022-11-06T03:43:16;3.42;;;2.28;;
75887;SDS011;64562;55.662;37.300;2022-11-06T03:45:44;3.65;;;2.63;;
75887;SDS011;64562;55.662;37.300;2022-11-06T03:48:12;3.17;;;2.33;;
75887;SDS011;64562;55.662;37.300;2022-11-06T03:50:43;5.03;;;2.50;;
75887;SDS011;64562;55.662;37.300;2022-11-06T03:53:13;4.20;;;2.67;;
75887;SDS011;64562;55.662;37.300;2022-11-06T03:55:42;3.95;;;2.95;;
75887;SDS011;64562;55.662;37.300;2022-11-06T03:58:12;4.80;;;2.80;;
75887;SDS011;64562;55.662;37.300;2022-11-06T04:00:40;4.32;;;2.78;;
75887;SDS011;64562;55.662;37.300;2022-11-06T04:03:09;3.75;;;2.67;;
75887;SDS011;64562;55.662;37.300;2022-11-06T04:05:39;5.15;;;2.90;;
75887;SDS011;64562;55.662;37.300;2022-11-06T04:08:07;4.45;;;3.10;;
75887;SDS011;64562;55.662;37.300;2022-11-06T04:10:54;4.15;;;2.67;;
75887;SDS011;64562;55.662;37.300;2022-11-06T04:13:40;4.97;;;2.85;;
75887;SDS011;64562;55.662;37.300;2022-11-06T04:16:21;4.22;;;2.95;;
75887;SDS011;64562;55.662;37.300;2022-11-06T04:18:48;3.92;;;2.60;;
75887;SDS011;64562;55.662;37.300;2022-11-06T04:21:18;4.65;;;3.10;;
75887;SDS011;64562;55.662;37.300;2022-11-06T04:23:49;4.25;;;3.00;;
75887;SDS011;64562;55.662;37.300;2022-11-06T04:26:35;4.00;;;2.78;;
75887;SDS011;64562;55.662;37.300;2022-11-06T04:29:06;4.85;;;3.17;;
75887;SDS011;64562;55.662;37.300;2022-11-06T04:31:39;5.05;;;2.90;;
75887;SDS011;64562;55.662;37.300;2022-11-06T04:34:08;5.93;;;3.17;;
75887;SDS011;64562;55.662;37.300;2022-11-06T04:36:39;5.07;;;3.05;;
75887;SDS011;64562;55.662;37.300;2022-11-06T04:39:10;5.57;;;3.67;;
75887;SDS011;64562;55.662;37.300;2022-11-06T04:41:41;3.92;;;3.13;;
75887;SDS011;64562;55.662;37.300;2022-11-06T04:44:10;5.15;;;3.00;;
75887;SDS011;64562;55.662;37.300;2022-11-06T04:46:39;4.28;;;2.45;;
75887;SDS011;64562;55.662;37.300;2022-11-06T04:49:08;4.38;;;3.10;;
75887;SDS011;64562;55.662;37.300;2022-11-06T04:51:36;5.28;;;3.50;;
75887;SDS011;64562;55.662;37.300;2022-11-06T04:54:04;4.38;;;3.25;;
75887;SDS011;64562;55.662;37.300;2022-11-06T04:56:33;5.38;;;3.20;;
75887;SDS011;64562;55.662;37.300;2022-11-06T04:59:02;4.88;;;3.25;;
75887;SDS011;64562;55.662;37.300;2022-11-06T05:01:29;4.53;;;3.38;;
75887;SDS011;64562;55.662;37.300;2022-11-06T05:03:55;6.15;;;3.75;;
75887;SDS011;64562;55.662;37.300;2022-11-06T05:06:22;3.70;;;2.75;;
75887;SDS011;64562;55.662;37.300;2022-11-06T05:08:49;4.15;;;3.00;;
75887;SDS011;64562;55.662;37.300;2022-11-06T05:11:15;5.10;;;3.40;;
75887;SDS011;64562;55.662;37.300;2022-11-06T05:13:43;5.10;;;3.60;;
75887;SDS011;64562;55.662;37.300;2022-11-06T05:16:11;4.55;;;3.40;;
75887;SDS011;64562;55.662;37.300;2022-11-06T05:18:38;4.20;;;3.00;;
75887;SDS011;64562;55.662;37.300;2022-11-06T05:21:05;4.07;;;2.53;;
75887;SDS011;64562;55.662;37.300;2022-11-06T05:23:48;4.90;;;3.40;;
75887;SDS011;64562;55.662;37.300;2022-11-06T05:26:15;3.97;;;3.03;;
75887;SDS011;64562;55.662;37.300;2022-11-06T05:28:42;6.03;;;3.40;;
75887;SDS011;64562;55.662;37.300;2022-11-06T05:31:08;3.67;;;2.90;;
75887;SDS011;64562;55.662;37.300;2022-11-06T05:33:36;5.18;;;3.63;;
75887;SDS011;64562;55.662;37.300;2022-11-06T05:36:03;4.60;;;3.47;;
75887;SDS011;64562;55.662;37.300;2022-11-06T05:38:30;4.10;;;3.35;;
75887;SDS011;64562;55.662;37.300;2022-11-06T05:40:57;5.65;;;3.17;;
75887;SDS011;64562;55.662;37.300;2022-11-06T05:43:23;4.38;;;3.22;;
75887;SDS011;64562;55.662;37.300;2022-11-06T05:45:50;5.00;;;3.20;;
75887;SDS011;64562;55.662;37.300;2022-11-06T05:48:17;5.45;;;3.88;;
75887;SDS011;64562;55.662;37.300;2022-11-06T05:50:45;5.10;;;3.70;;
75887;SDS011;64562;55.662;37.300;2022-11-06T05:53:11;5.15;;;3.95;;
75887;SDS011;64562;55.662;37.300;2022-11-06T05:55:38;5.15;;;3.50;;
75887;SDS011;64562;55.662;37.300;2022-11-06T05:58:04;5.10;;;3.70;;
75887;SDS011;64562;55.662;37.300;2022-11-06T06:00:31;4.55;;;3.25;;
75887;SDS011;64562;55.662;37.300;2022-11-06T06:02:58;4.35;;;2.80;;
75887;SDS011;64562;55.662;37.300;2022-11-06T06:05:24;6.00;;;3.92;;
75887;SDS011;64562;55.662;37.300;2022-11-06T06:07:52;4.15;;;2.90;;
75887;SDS011;64562;55.662;37.300;2022-11-06T06:10:19;5.22;;;3.50;;
75887;SDS011;64562;55.662;37.300;2022-11-06T06:12:47;6.88;;;3.30;;
75887;SDS011;64562;55.662;37.300;2022-11-06T06:15:14;3.78;;;3.00;;
75887;SDS011;64562;55.662;37.300;2022-11-06T06:17:41;6.45;;;3.33;;
75887;SDS011;64562;55.662;37.300;2022-11-06T06:20:09;5.78;;;3.08;;
75887;SDS011;64562;55.662;37.300;2022-11-06T06:22:36;3.90;;;2.92;;
75887;SDS011;64562;55.662;37.300;2022-11-06T06:25:05;3.88;;;2.80;;
75887;SDS011;64562;55.662;37.300;2022-11-06T06:27:31;3.40;;;2.55;;
75887;SDS011;64562;55.662;37.300;2022-11-06T06:29:58;4.95;;;3.25;;
75887;SDS011;64562;55.662;37.300;2022-11-06T06:32:25;5.53;;;3.70;;
75887;SDS011;64562;55.662;37.300;2022-11-06T06:34:51;4.00;;;2.83;;
75887;SDS011;64562;55.662;37.300;2022-11-06T06:37:18;4.40;;;2.78;;
75887;SDS011;64562;55.662;37.300;2022-11-06T06:39:45;4.18;;;3.22;;
75887;SDS011;64562;55.662;37.300;2022-11-06T06:42:13;4.55;;;3.28;;
75887;SDS011;64562;55.662;37.300;2022-11-06T06:44:39;4.15;;;3.00;;
75887;SDS011;64562;55.662;37.300;2022-11-06T06:47:06;3.17;;;2.75;;
75887;SDS011;64562;55.662;37.300;2022-11-06T06:49:33;4.47;;;3.08;;
75887;SDS011;64562;55.662;37.300;2022-11-06T06:52:00;3.78;;;2.58;;
75887;SDS011;64562;55.662;37.300;2022-11-06T06:54:26;3.53;;;2.67;;
75887;SDS011;64562;55.662;37.300;2022-11-06T06:56:53;4.63;;;2.88;;
75887;SDS011;64562;55.662;37.300;2022-11-06T06:59:21;4.43;;;3.40;;
75887;SDS011;64562;55.662;37.300;2022-11-06T07:01:47;4.20;;;2.88;;
75887;SDS011;64562;55.662;37.300;2022-11-06T07:04:14;3.50;;;2.90;;
75887;SDS011;64562;55.662;37.300;2022-11-06T07:06:41;3.70;;;2.40;;
75887;SDS011;64562;55.662;37.300;2022-11-06T07:09:07;4.82;;;2.30;;
75887;SDS011;64562;55.662;37.300;2022-11-06T07:11:34;3.83;;;2.03;;
75887;SDS011;64562;55.662;37.300;2022-11-06T07:14:01;3.60;;;2.38;;
75887;SDS011;64562;55.662;37.300;2022-11-06T07:16:29;3.70;;;2.35;;
75887;SDS011;64562;55.662;37.300;2022-11-06T07:18:56;3.78;;;2.53;;
75887;SDS011;64562;55.662;37.300;2022-11-06T07:21:23;3.78;;;2.53;;
75887;SDS011;64562;55.662;37.300;2022-11-06T07:23:50;7.88;;;3.03;;
75887;SDS011;64562;55.662;37.300;2022-11-06T07:26:16;6.80;;;3.25;;
75887;SDS011;64562;55.662;37.300;2022-11-06T07:28:43;6.28;;;3.10;;
75887;SDS011;64562;55.662;37.300;2022-11-06T07:31:10;5.22;;;3.08;;
75887;SDS011;64562;55.662;37.300;2022-11-06T07:33:38;5.30;;;2.92;;
75887;SDS011;64562;55.662;37.300;2022-11-06T07:36:05;5.82;;;3.20;;
75887;SDS011;64562;55.662;37.300;2022-11-06T07:38:33;6.90;;;3.58;;
75887;SDS011;64562;55.662;37.300;2022-11-06T07:41:00;5.28;;;3.05;;
75887;SDS011;64562;55.662;37.300;2022-11-06T07:43:27;6.65;;;3.50;;
75887;SDS011;64562;55.662;37.300;2022-11-06T07:45:53;4.70;;;3.05;;
75887;SDS011;64562;55.662;37.300;2022-11-06T07:48:23;5.88;;;2.65;;
75887;SDS011;64562;55.662;37.300;2022-11-06T07:50:51;5.85;;;2.63;;
75887;SDS011;64562;55.662;37.300;2022-11-06T07:53:18;4.45;;;2.97;;
75887;SDS011;64562;55.662;37.300;2022-11-06T07:55:46;3.65;;;2.40;;
75887;SDS011;64562;55.662;37.300;2022-11-06T07:58:13;3.75;;;2.67;;
75887;SDS011;64562;55.662;37.300;2022-11-06T08:00:44;6.80;;;3.00;;
75887;SDS011;64562;55.662;37.300;2022-11-06T08:03:11;4.78;;;3.15;;
75887;SDS011;64562;55.662;37.300;2022-11-06T08:05:37;5.00;;;3.22;;
75887;SDS011;64562;55.662;37.300;2022-11-06T08:08:05;12.88;;;8.02;;
75887;SDS011;64562;55.662;37.300;2022-11-06T08:10:32;6.07;;;3.80;;
75887;SDS011;64562;55.662;37.300;2022-11-06T08:13:01;6.00;;;3.55;;
75887;SDS011;64562;55.662;37.300;2022-11-06T08:15:28;6.40;;;3.40;;
75887;SDS011;64562;55.662;37.300;2022-11-06T08:17:57;6.63;;;3.80;;
75887;SDS011;64562;55.662;37.300;2022-11-06T08:20:23;5.82;;;3.42;;
75887;SDS011;64562;55.662;37.300;2022-11-06T08:22:50;8.88;;;4.18;;
75887;SDS011;64562;55.662;37.300;2022-11-06T08:25:18;7.30;;;3.75;;
75887;SDS011;64562;55.662;37.300;2022-11-06T08:27:45;4.65;;;3.00;;
75887;SDS011;64562;55.662;37.300;2022-11-06T08:30:11;8.05;;;4.35;;
75887;SDS011;64562;55.662;37.300;2022-11-06T08:32:38;7.03;;;4.03;;
75887;SDS011;64562;55.662;37.300;2022-11-06T08:35:05;6.82;;;4.07;;
75887;SDS011;64562;55.662;37.300;2022-11-06T08:37:32;6.63;;;4.20;;
75887;SDS011;64562;55.662;37.300;2022-11-06T08:39:59;6.72;;;3.83;;
75887;SDS011;64562;55.662;37.300;2022-11-06T08:42:26;4.95;;;3.28;;
75887;SDS011;64562;55.662;37.300;2022-11-06T08:44:53;6.32;;;3.85;;
75887;SDS011;64562;55.662;37.300;2022-11-06T08:47:20;5.95;;;4.10;;
75887;SDS011;64562;55.662;37.300;2022-11-06T08:49:46;8.30;;;4.40;;
75887;SDS011;64562;55.662;37.300;2022-11-06T08:52:13;8.43;;;4.07;;
75887;SDS011;64562;55.662;37.300;2022-11-06T08:54:40;6.38;;;3.75;;
75887;SDS011;64562;55.662;37.300;2022-11-06T08:57:07;5.65;;;3.38;;
75887;SDS011;64562;55.662;37.300;2022-11-06T08:59:35;9.60;;;3.80;;
75887;SDS011;64562;55.662;37.300;2022-11-06T09:02:01;5.32;;;3.63;;
75887;SDS011;64562;55.662;37.300;2022-11-06T09:04:28;5.72;;;4.18;;
75887;SDS011;64562;55.662;37.300;2022-11-06T09:06:55;6.80;;;3.78;;
75887;SDS011;64562;55.662;37.300;2022-11-06T09:09:21;4.75;;;3.92;;
75887;SDS011;64562;55.662;37.300;2022-11-06T09:11:56;5.35;;;3.67;;
75887;SDS011;64562;55.662;37.300;2022-11-06T09:14:24;8.27;;;3.90;;
75887;SDS011;64562;55.662;37.300;2022-11-06T09:16:52;6.43;;;3.92;;
75887;SDS011;64562;55.662;37.300;2022-11-06T09:19:19;5.05;;;3.88;;
75887;SDS011;64562;55.662;37.300;2022-11-06T09:21:46;5.80;;;3.90;;
75887;SDS011;64562;55.662;37.300;2022-11-06T09:24:12;4.63;;;3.55;;
75887;SDS011;64562;55.662;37.300;2022-11-06T09:26:39;6.22;;;3.90;;
75887;SDS011;64562;55.662;37.300;2022-11-06T09:29:06;8.07;;;4.43;;
75887;SDS011;64562;55.662;37.300;2022-11-06T09:31:33;6.80;;;4.22;;
75887;SDS011;64562;55.662;37.300;2022-11-06T09:34:01;9.30;;;4.03;;
75887;SDS011;64562;55.662;37.300;2022-11-06T09:36:28;5.82;;;3.53;;
75887;SDS011;64562;55.662;37.300;2022-11-06T09:38:55;7.93;;;3.58;;
75887;SDS011;64562;55.662;37.300;2022-11-06T09:41:22;6.97;;;3.92;;
75887;SDS011;64562;55.662;37.300;2022-11-06T09:43:55;10.80;;;4.15;;
75887;SDS011;64562;55.662;37.300;2022-11-06T09:46:24;7.97;;;4.00;;
75887;SDS011;64562;55.662;37.300;2022-11-06T09:48:53;10.35;;;4.32;;
75887;SDS011;64562;55.662;37.300;2022-11-06T09:51:25;11.32;;;5.28;;
75887;SDS011;64562;55.662;37.300;2022-11-06T09:53:54;10.43;;;5.57;;
75887;SDS011;64562;55.662;37.300;2022-11-06T09:56:23;9.30;;;4.28;;
75887;SDS011;64562;55.662;37.300;2022-11-06T09:58:51;6.82;;;4.72;;
75887;SDS011;64562;55.662;37.300;2022-11-06T10:01:19;8.73;;;4.20;;
75887;SDS011;64562;55.662;37.300;2022-11-06T10:03:47;7.60;;;4.70;;
75887;SDS011;64562;55.662;37.300;2022-11-06T10:06:19;12.13;;;4.32;;
75887;SDS011;64562;55.662;37.300;2022-11-06T10:08:48;6.00;;;3.75;;
75887;SDS011;64562;55.662;37.300;2022-11-06T10:11:21;9.15;;;4.50;;
75887;SDS011;64562;55.662;37.300;2022-11-06T10:13:53;9.65;;;4.55;;
75887;SDS011;64562;55.662;37.300;2022-11-06T10:16:25;7.18;;;4.25;;
75887;SDS011;64562;55.662;37.300;2022-11-06T10:18:59;9.10;;;4.68;;
75887;SDS011;64562;55.662;37.300;2022-11-06T10:21:33;7.13;;;3.78;;
75887;SDS011;64562;55.662;37.300;2022-11-06T10:24:10;7.38;;;5.05;;
75887;SDS011;64562;55.662;37.300;2022-11-06T10:26:40;6.47;;;4.03;;
75887;SDS011;64562;55.662;37.300;2022-11-06T10:29:14;5.70;;;3.65;;
75887;SDS011;64562;55.662;37.300;2022-11-06T10:31:45;6.45;;;4.00;;
75887;SDS011;64562;55.662;37.300;2022-11-06T10:34:16;7.97;;;3.72;;
75887;SDS011;64562;55.662;37.300;2022-11-06T10:36:44;5.75;;;3.75;;
75887;SDS011;64562;55.662;37.300;2022-11-06T10:39:14;5.32;;;3.40;;
75887;SDS011;64562;55.662;37.300;2022-11-06T10:41:42;7.15;;;4.20;;
75887;SDS011;64562;55.662;37.300;2022-11-06T10:44:12;6.45;;;3.90;;
75887;SDS011;64562;55.662;37.300;2022-11-06T10:46:42;6.10;;;4.03;;
75887;SDS011;64562;55.662;37.300;2022-11-06T10:49:10;6.25;;;4.03;;
75887;SDS011;64562;55.662;37.300;2022-11-06T10:51:51;5.70;;;3.85;;
75887;SDS011;64562;55.662;37.300;2022-11-06T10:54:29;6.20;;;4.60;;
75887;SDS011;64562;55.662;37.300;2022-11-06T10:57:04;7.82;;;3.30;;
75887;SDS011;64562;55.662;37.300;2022-11-06T10:59:34;7.30;;;3.30;;
75887;SDS011;64562;55.662;37.300;2022-11-06T11:02:00;4.85;;;3.30;;
75887;SDS011;64562;55.662;37.300;2022-11-06T11:04:28;4.15;;;2.75;;
75887;SDS011;64562;55.662;37.300;2022-11-06T11:06:56;5.80;;;3.13;;
75887;SDS011;64562;55.662;37.300;2022-11-06T11:09:28;5.40;;;3.35;;
75887;SDS011;64562;55.662;37.300;2022-11-06T11:11:55;4.97;;;3.17;;
75887;SDS011;64562;55.662;37.300;2022-11-06T11:14:23;6.18;;;3.42;;
75887;SDS011;64562;55.662;37.300;2022-11-06T11:16:50;4.65;;;3.47;;
75887;SDS011;64562;55.662;37.300;2022-11-06T11:19:24;6.55;;;3.20;;
75887;SDS011;64562;55.662;37.300;2022-11-06T11:21:51;4.68;;;3.05;;
75887;SDS011;64562;55.662;37.300;2022-11-06T11:24:18;6.15;;;3.15;;
75887;SDS011;64562;55.662;37.300;2022-11-06T11:26:47;6.18;;;2.80;;
75887;SDS011;64562;55.662;37.300;2022-11-06T11:29:14;5.47;;;3.22;;
75887;SDS011;64562;55.662;37.300;2022-11-06T11:31:44;5.30;;;3.42;;
75887;SDS011;64562;55.662;37.300;2022-11-06T11:34:13;5.70;;;3.53;;
75887;SDS011;64562;55.662;37.300;2022-11-06T11:36:52;7.13;;;3.60;;
75887;SDS011;64562;55.662;37.300;2022-11-06T11:39:20;3.95;;;2.45;;
75887;SDS011;64562;55.662;37.300;2022-11-06T11:41:49;4.40;;;2.80;;
75887;SDS011;64562;55.662;37.300;2022-11-06T11:44:16;4.28;;;3.00;;
75887;SDS011;64562;55.662;37.300;2022-11-06T11:46:47;4.75;;;2.85;;
75887;SDS011;64562;55.662;37.300;2022-11-06T11:51:59;4.80;;;3.17;;
75887;SDS011;64562;55.662;37.300;2022-11-06T11:54:26;5.00;;;3.30;;
75887;SDS011;64562;55.662;37.300;2022-11-06T11:56:55;4.82;;;3.28;;
75887;SDS011;64562;55.662;37.300;2022-11-06T11:59:23;4.93;;;2.88;;
75887;SDS011;64562;55.662;37.300;2022-11-06T12:01:52;4.18;;;2.50;;
75887;SDS011;64562;55.662;37.300;2022-11-06T12:04:21;4.18;;;2.13;;
75887;SDS011;64562;55.662;37.300;2022-11-06T12:06:50;5.38;;;3.08;;
75887;SDS011;64562;55.662;37.300;2022-11-06T12:09:18;4.72;;;3.65;;
75887;SDS011;64562;55.662;37.300;2022-11-06T12:11:45;4.75;;;3.03;;
75887;SDS011;64562;55.662;37.300;2022-11-06T12:14:26;6.85;;;2.88;;
75887;SDS011;64562;55.662;37.300;2022-11-06T12:16:54;5.95;;;3.13;;
75887;SDS011;64562;55.662;37.300;2022-11-06T12:19:23;6.25;;;3.00;;
75887;SDS011;64562;55.662;37.300;2022-11-06T12:21:52;4.82;;;3.35;;
75887;SDS011;64562;55.662;37.300;2022-11-06T12:24:21;4.68;;;2.90;;
75887;SDS011;64562;55.662;37.300;2022-11-06T12:26:50;5.50;;;3.58;;
75887;SDS011;64562;55.662;37.300;2022-11-06T12:29:18;4.65;;;3.33;;
75887;SDS011;64562;55.662;37.300;2022-11-06T12:31:49;6.85;;;3.70;;
75887;SDS011;64562;55.662;37.300;2022-11-06T12:34:18;6.00;;;3.40;;
75887;SDS011;64562;55.662;37.300;2022-11-06T12:36:49;7.18;;;4.50;;
75887;SDS011;64562;55.662;37.300;2022-11-06T12:39:18;6.25;;;4.60;;
75887;SDS011;64562;55.662;37.300;2022-11-06T12:41:48;7.18;;;4.90;;
75887;SDS011;64562;55.662;37.300;2022-11-06T12:44:15;9.82;;;5.28;;
75887;SDS011;64562;55.662;37.300;2022-11-06T12:46:43;10.38;;;6.03;;
75887;SDS011;64562;55.662;37.300;2022-11-06T12:52:03;5.93;;;4.47;;
75887;SDS011;64562;55.662;37.300;2022-11-06T12:54:39;7.20;;;4.13;;
75887;SDS011;64562;55.662;37.300;2022-11-06T12:57:10;5.45;;;3.75;;
75887;SDS011;64562;55.662;37.300;2022-11-06T12:59:44;7.28;;;3.28;;
75887;SDS011;64562;55.662;37.300;2022-11-06T13:02:18;6.35;;;4.13;;
75887;SDS011;64562;55.662;37.300;2022-11-06T13:04:50;6.82;;;3.40;;
75887;SDS011;64562;55.662;37.300;2022-11-06T13:09:47;7.80;;;3.55;;
75887;SDS011;64562;55.662;37.300;2022-11-06T13:12:18;4.63;;;3.25;;
75887;SDS011;64562;55.662;37.300;2022-11-06T13:14:50;4.72;;;2.50;;
75887;SDS011;64562;55.662;37.300;2022-11-06T13:17:20;4.15;;;2.92;;
75887;SDS011;64562;55.662;37.300;2022-11-06T13:19:51;5.78;;;3.03;;
75887;SDS011;64562;55.662;37.300;2022-11-06T13:22:21;7.88;;;3.15;;
75887;SDS011;64562;55.662;37.300;2022-11-06T13:24:52;5.68;;;2.85;;
75887;SDS011;64562;55.662;37.300;2022-11-06T13:27:22;6.25;;;2.55;;
75887;SDS011;64562;55.662;37.300;2022-11-06T13:29:50;6.22;;;2.65;;
75887;SDS011;64562;55.662;37.300;2022-11-06T13:32:19;9.70;;;3.40;;
75887;SDS011;64562;55.662;37.300;2022-11-06T13:34:47;5.70;;;2.90;;
75887;SDS011;64562;55.662;37.300;2022-11-06T13:37:15;6.38;;;2.95;;
75887;SDS011;64562;55.662;37.300;2022-11-06T13:39:43;11.05;;;3.53;;
75887;SDS011;64562;55.662;37.300;2022-11-06T13:42:16;9.85;;;3.60;;
75887;SDS011;64562;55.662;37.300;2022-11-06T13:44:43;10.25;;;3.70;;
75887;SDS011;64562;55.662;37.300;2022-11-06T13:47:11;11.20;;;3.70;;
75887;SDS011;64562;55.662;37.300;2022-11-06T13:49:40;9.50;;;3.83;;
75887;SDS011;64562;55.662;37.300;2022-11-06T13:52:11;9.95;;;3.60;;
75887;SDS011;64562;55.662;37.300;2022-11-06T13:54:47;8.45;;;3.58;;
75887;SDS011;64562;55.662;37.300;2022-11-06T13:57:31;8.30;;;3.50;;
75887;SDS011;64562;55.662;37.300;2022-11-06T14:00:08;10.52;;;2.95;;
75887;SDS011;64562;55.662;37.300;2022-11-06T14:02:41;7.53;;;2.88;;
75887;SDS011;64562;55.662;37.300;2022-11-06T14:07:58;7.72;;;2.95;;
75887;SDS011;64562;55.662;37.300;2022-11-06T14:10:30;6.70;;;3.08;;
75887;SDS011;64562;55.662;37.300;2022-11-06T14:12:59;7.55;;;2.83;;
75887;SDS011;64562;55.662;37.300;2022-11-06T14:15:29;6.72;;;3.03;;
75887;SDS011;64562;55.662;37.300;2022-11-06T14:17:57;5.97;;;3.00;;
75887;SDS011;64562;55.662;37.300;2022-11-06T14:20:26;4.00;;;2.55;;
75887;SDS011;64562;55.662;37.300;2022-11-06T14:22:53;4.63;;;2.42;;
75887;SDS011;64562;55.662;37.300;2022-11-06T14:28:03;3.15;;;1.90;;
75887;SDS011;64562;55.662;37.300;2022-11-06T14:30:37;3.83;;;2.55;;
75887;SDS011;64562;55.662;37.300;2022-11-06T14:33:07;3.30;;;2.50;;
75887;SDS011;64562;55.662;37.300;2022-11-06T14:43:53;6.00;;;2.33;;
75887;SDS011;64562;55.662;37.300;2022-11-06T14:46:20;4.00;;;2.40;;
75887;SDS011;64562;55.662;37.300;2022-11-06T14:48:49;3.90;;;2.00;;
75887;SDS011;64562;55.662;37.300;2022-11-06T14:51:16;3.33;;;2.35;;
75887;SDS011;64562;55.662;37.300;2022-11-06T14:53:51;3.75;;;2.10;;
75887;SDS011;64562;55.662;37.300;2022-11-06T14:56:19;4.05;;;2.00;;
75887;SDS011;64562;55.662;37.300;2022-11-06T14:58:46;2.97;;;1.90;;
75887;SDS011;64562;55.662;37.300;2022-11-06T15:01:15;4.57;;;2.05;;
75887;SDS011;64562;55.662;37.300;2022-11-06T15:03:50;3.92;;;2.25;;
75887;SDS011;64562;55.662;37.300;2022-11-06T15:06:32;4.47;;;2.17;;
75887;SDS011;64562;55.662;37.300;2022-11-06T15:09:02;4.38;;;2.20;;